createdAt,value
2018-06-20T00:01:07.089Z,34.27
2018-06-20T00:04:10.181Z,35.93
2018-06-20T00:07:13.275Z,35.80
2018-06-20T00:10:16.163Z,32.07
2018-06-20T00:13:19.229Z,33.40
2018-06-20T00:16:22.509Z,32.10
2018-06-20T00:19:25.587Z,30.33
2018-06-20T00:22:28.670Z,33.70
2018-06-20T00:25:31.905Z,28.67
2018-06-20T00:28:34.986Z,27.50
2018-06-20T00:31:38.063Z,28.03
2018-06-20T00:34:41.237Z,30.77
2018-06-20T00:37:44.337Z,30.27
2018-06-20T00:40:47.422Z,24.13
2018-06-20T00:43:50.517Z,26.23
2018-06-20T00:46:53.644Z,23.60
2018-06-20T00:49:56.717Z,23.77
2018-06-20T00:53:00.602Z,23.30
2018-06-20T00:56:15.029Z,23.67
2018-06-20T00:59:17.900Z,26.27
2018-06-20T01:02:21.082Z,23.47
2018-06-20T01:05:24.180Z,25.13
2018-06-20T01:08:27.285Z,28.40
2018-06-20T01:11:30.404Z,30.07
2018-06-20T01:14:33.470Z,32.73
2018-06-20T01:17:36.612Z,31.87
2018-06-20T01:20:39.736Z,33.30
2018-06-20T01:23:42.804Z,34.93
2018-06-20T01:26:45.902Z,34.47
2018-06-20T01:29:48.997Z,30.03
2018-06-20T01:32:52.085Z,29.13
2018-06-20T01:35:55.182Z,31.87
2018-06-20T01:38:58.273Z,28.30
2018-06-20T01:42:01.381Z,27.47
2018-06-20T01:45:04.522Z,29.47
2018-06-20T01:48:08.273Z,27.87
2018-06-20T01:51:11.436Z,31.43
2018-06-20T01:54:14.510Z,33.57
2018-06-20T01:57:17.614Z,31.10
2018-06-20T02:00:21.157Z,33.60
2018-06-20T02:03:24.257Z,31.97
2018-06-20T02:06:27.369Z,31.00
2018-06-20T02:09:30.238Z,31.50
2018-06-20T02:12:33.329Z,31.73
2018-06-20T02:15:36.434Z,36.20
2018-06-20T02:18:39.550Z,37.40
2018-06-20T02:21:42.645Z,33.23
2018-06-20T02:24:45.713Z,41.53
2018-06-20T02:27:48.808Z,37.60
2018-06-20T02:30:51.902Z,34.33
2018-06-20T02:33:54.983Z,33.53
2018-06-20T02:36:57.853Z,35.10
2018-06-20T02:40:00.913Z,29.33
2018-06-20T02:43:03.997Z,33.40
2018-06-20T02:46:07.089Z,31.87
2018-06-20T02:49:10.157Z,33.20
2018-06-20T02:52:13.253Z,35.63
2018-06-20T02:55:16.363Z,35.57
2018-06-20T02:58:19.431Z,35.27
2018-06-20T03:01:22.545Z,36.67
2018-06-20T03:04:25.642Z,37.53
2018-06-20T03:07:28.724Z,35.30
2018-06-20T03:10:31.814Z,35.57
2018-06-20T03:13:35.446Z,35.60
2018-06-20T03:16:38.541Z,35.60
2018-06-20T03:19:41.649Z,35.43
2018-06-20T03:22:44.738Z,32.70
2018-06-20T03:25:47.822Z,28.00
2018-06-20T03:28:50.903Z,27.27
2018-06-20T03:31:53.990Z,26.57
2018-06-20T03:34:57.078Z,25.90
2018-06-20T03:38:00.157Z,27.57
2018-06-20T03:41:03.248Z,32.17
2018-06-20T03:44:06.346Z,30.73
2018-06-20T03:47:09.442Z,29.90
2018-06-20T03:50:12.528Z,28.77
2018-06-20T03:53:15.652Z,26.30
2018-06-20T03:56:18.736Z,27.87
2018-06-20T03:59:21.810Z,32.67
2018-06-20T04:02:24.926Z,27.33
2018-06-20T04:05:29.948Z,28.37
2018-06-20T04:08:33.041Z,29.47
2018-06-20T04:11:36.147Z,29.20
2018-06-20T04:14:39.225Z,27.33
2018-06-20T04:17:42.333Z,28.93
2018-06-20T04:20:45.389Z,24.57
2018-06-20T04:23:48.509Z,27.17
2018-06-20T04:27:14.709Z,25.87
2018-06-20T04:30:17.788Z,27.83
2018-06-20T04:33:20.869Z,28.17
2018-06-20T04:36:23.957Z,29.07
2018-06-20T04:39:27.320Z,25.83
2018-06-20T04:42:30.394Z,28.70
2018-06-20T04:45:33.461Z,25.20
2018-06-20T04:48:36.522Z,25.37
2018-06-20T04:51:39.605Z,22.83
2018-06-20T04:54:42.673Z,22.37
2018-06-20T04:57:45.753Z,21.90
2018-06-20T05:00:48.829Z,20.57
2018-06-20T05:03:51.893Z,19.37
2018-06-20T05:06:54.983Z,20.00
2018-06-20T05:09:58.054Z,22.03
2018-06-20T05:13:01.158Z,18.83
2018-06-20T05:16:04.257Z,19.27
2018-06-20T05:19:07.362Z,20.03
2018-06-20T05:22:10.446Z,20.87
2018-06-20T05:25:13.551Z,18.00
2018-06-20T05:28:16.649Z,17.00
2018-06-20T05:31:19.749Z,16.53
2018-06-20T05:34:22.856Z,17.70
2018-06-20T05:37:25.921Z,17.27
2018-06-20T05:40:29.001Z,16.30
2018-06-20T05:43:32.087Z,19.77
2018-06-20T05:46:35.182Z,18.93
2018-06-20T05:49:38.275Z,17.17
2018-06-20T05:52:41.376Z,18.33
2018-06-20T05:55:44.458Z,18.50
2018-06-20T05:58:47.555Z,18.73
2018-06-20T06:01:50.632Z,20.43
2018-06-20T06:04:53.742Z,20.63
2018-06-20T06:07:56.844Z,23.33
2018-06-20T06:10:59.930Z,23.30
2018-06-20T06:14:03.057Z,19.90
2018-06-20T06:17:06.186Z,20.87
2018-06-20T06:20:10.059Z,20.40
2018-06-20T06:23:13.170Z,19.33
2018-06-20T06:26:16.202Z,18.00
2018-06-20T06:29:19.313Z,18.70
2018-06-20T06:32:22.419Z,15.87
2018-06-20T06:35:25.497Z,15.90
2018-06-20T06:38:28.585Z,18.17
2018-06-20T06:41:31.658Z,16.17
2018-06-20T06:44:34.760Z,16.83
2018-06-20T06:47:37.849Z,15.17
2018-06-20T06:50:40.968Z,18.20
2018-06-20T06:53:44.075Z,17.50
2018-06-20T06:56:47.153Z,15.90
2018-06-20T06:59:50.281Z,19.37
2018-06-20T07:02:53.390Z,20.37
2018-06-20T07:05:56.444Z,15.73
2018-06-20T07:08:59.534Z,18.80
2018-06-20T07:12:02.389Z,16.90
2018-06-20T07:15:05.465Z,19.00
2018-06-20T07:18:08.537Z,15.57
2018-06-20T07:21:11.616Z,16.23
2018-06-20T07:24:14.730Z,16.80
2018-06-20T07:27:17.797Z,16.73
2018-06-20T07:30:37.641Z,16.47
2018-06-20T07:33:40.733Z,19.20
2018-06-20T07:36:43.797Z,20.70
2018-06-20T07:39:46.905Z,20.90
2018-06-20T07:42:50.005Z,17.43
2018-06-20T07:45:53.073Z,17.07
2018-06-20T07:48:56.157Z,16.13
2018-06-20T07:51:59.380Z,15.43
2018-06-20T07:55:02.573Z,15.87
2018-06-20T07:58:05.645Z,13.87
2018-06-20T08:01:15.198Z,12.63
2018-06-20T08:04:23.872Z,12.87
2018-06-20T08:07:32.561Z,13.83
2018-06-20T08:10:41.071Z,13.97
2018-06-20T08:13:49.741Z,12.47
2018-06-20T08:16:58.214Z,9.83
2018-06-20T08:20:01.701Z,11.63
2018-06-20T08:23:04.771Z,10.13
2018-06-20T08:26:07.864Z,9.73
2018-06-20T08:29:10.997Z,9.30
2018-06-20T08:32:14.065Z,7.67
2018-06-20T08:35:31.698Z,7.30
2018-06-20T08:38:34.782Z,7.53
2018-06-20T08:41:37.859Z,7.93
2018-06-20T08:44:40.967Z,7.93
2018-06-20T08:47:44.026Z,7.77
2018-06-20T08:50:47.110Z,9.90
2018-06-20T08:53:50.205Z,7.73
2018-06-20T09:00:02.840Z,7.43
2018-06-20T09:03:05.913Z,6.40
2018-06-20T09:06:14.558Z,7.23
2018-06-20T09:09:23.086Z,7.77
2018-06-20T09:12:31.545Z,7.17
2018-06-20T09:15:40.068Z,6.87
2018-06-20T09:18:48.587Z,8.63
2018-06-20T09:21:57.905Z,6.73
2018-06-20T09:25:00.918Z,6.03
2018-06-20T09:28:03.984Z,5.37
2018-06-20T09:31:07.245Z,6.17
2018-06-20T09:34:16.465Z,5.37
2018-06-20T09:37:19.558Z,6.67
2018-06-20T09:40:22.632Z,5.70
2018-06-20T09:43:25.569Z,5.60
2018-06-20T09:46:28.651Z,5.33
2018-06-20T09:49:31.723Z,6.10
2018-06-20T09:52:34.804Z,9.40
2018-06-20T09:55:37.896Z,6.97
2018-06-20T09:58:40.969Z,7.80
2018-06-20T10:01:49.369Z,5.57
2018-06-20T10:05:57.533Z,5.70
2018-06-20T10:09:06.101Z,6.00
2018-06-20T10:12:10.882Z,5.90
2018-06-20T10:15:14.014Z,5.93
2018-06-20T10:18:17.086Z,6.00
2018-06-20T10:21:20.303Z,7.20
2018-06-20T10:24:23.256Z,5.77
2018-06-20T10:27:26.409Z,6.10
2018-06-20T10:30:29.294Z,5.90
2018-06-20T10:33:32.385Z,6.43
2018-06-20T10:36:35.453Z,5.97
2018-06-20T10:39:44.305Z,6.03
2018-06-20T10:42:47.577Z,6.63
2018-06-20T10:45:56.294Z,6.63
2018-06-20T10:49:09.429Z,6.97
2018-06-20T10:52:12.527Z,6.17
2018-06-20T10:55:16.837Z,6.63
2018-06-20T10:58:25.385Z,5.33
2018-06-20T11:01:33.890Z,6.50
2018-06-20T11:04:42.350Z,5.70
2018-06-20T11:07:50.841Z,5.77
2018-06-20T11:10:59.378Z,5.80
2018-06-20T11:14:02.466Z,5.27
2018-06-20T11:17:05.533Z,5.43
2018-06-20T11:20:13.913Z,5.60
2018-06-20T11:23:16.998Z,5.47
2018-06-20T11:26:20.066Z,4.87
2018-06-20T11:29:23.193Z,5.50
2018-06-20T11:32:26.217Z,6.00
2018-06-20T11:35:29.100Z,5.70
2018-06-20T11:38:32.649Z,6.60
2018-06-20T11:41:35.740Z,7.60
2018-06-20T11:44:38.806Z,6.00
2018-06-20T11:47:43.180Z,6.13
2018-06-20T11:50:46.329Z,5.20
2018-06-20T11:53:49.395Z,5.10
2018-06-20T11:56:52.476Z,5.30
2018-06-20T12:00:00.910Z,5.10
2018-06-20T12:03:09.456Z,5.17
2018-06-20T12:07:20.937Z,5.13
2018-06-20T12:10:29.565Z,6.30
2018-06-20T12:13:38.059Z,4.80
2018-06-20T12:16:45.345Z,4.67
2018-06-20T12:19:53.785Z,4.80
2018-06-20T12:23:02.459Z,4.47
2018-06-20T12:26:10.929Z,4.83
2018-06-20T12:29:19.430Z,5.37
2018-06-20T12:32:27.820Z,6.27
2018-06-20T12:35:36.298Z,5.30
2018-06-20T12:38:46.955Z,6.07
2018-06-20T12:41:55.389Z,6.80
2018-06-20T12:45:01.166Z,6.00
2018-06-20T12:48:04.246Z,4.77
2018-06-20T12:51:07.317Z,5.03
2018-06-20T12:54:10.411Z,5.73
2018-06-20T12:57:13.525Z,4.90
2018-06-20T13:00:16.634Z,6.27
2018-06-20T13:03:19.730Z,6.53
2018-06-20T13:06:22.831Z,7.13
2018-06-20T13:09:25.900Z,5.77
2018-06-20T13:12:28.984Z,5.97
2018-06-20T13:15:32.076Z,6.03
2018-06-20T13:18:35.176Z,7.87
2018-06-20T13:21:38.268Z,6.77
2018-06-20T13:24:41.349Z,6.50
2018-06-20T13:27:46.364Z,6.17
2018-06-20T13:30:55.051Z,7.47
2018-06-20T13:34:03.464Z,6.20
2018-06-20T13:37:11.887Z,6.47
2018-06-20T13:40:20.381Z,9.37
2018-06-20T13:43:28.925Z,6.70
2018-06-20T13:46:37.541Z,9.10
2018-06-20T13:49:40.617Z,9.70
2018-06-20T13:52:43.726Z,8.30
2018-06-20T13:55:46.797Z,7.33
2018-06-20T13:58:49.896Z,7.40
2018-06-20T14:01:52.896Z,6.73
2018-06-20T14:04:55.946Z,6.40
2018-06-20T14:07:59.025Z,6.60
2018-06-20T14:11:02.090Z,7.97
2018-06-20T14:14:05.317Z,6.97
2018-06-20T14:17:09.321Z,6.30
2018-06-20T14:20:17.961Z,8.40
2018-06-20T14:23:21.053Z,6.87
2018-06-20T14:26:24.138Z,6.90
2018-06-20T14:29:32.649Z,7.77
2018-06-20T14:32:41.161Z,7.50
2018-06-20T14:35:49.630Z,7.40
2018-06-20T14:39:06.209Z,7.70
2018-06-20T14:42:15.596Z,7.00
2018-06-20T14:45:24.221Z,7.87
2018-06-20T14:48:27.314Z,6.40
2018-06-20T14:51:30.404Z,7.20
2018-06-20T14:54:44.841Z,6.90
2018-06-20T14:57:47.895Z,7.73
2018-06-20T15:00:50.983Z,6.73
2018-06-20T15:03:54.057Z,6.27
2018-06-20T15:06:57.198Z,7.83
2018-06-20T15:10:00.231Z,6.87
2018-06-20T15:13:03.312Z,6.30
2018-06-20T15:16:11.809Z,6.90
2018-06-20T15:19:14.925Z,6.20
2018-06-20T15:22:18.031Z,8.50
2018-06-20T15:25:26.609Z,5.97
2018-06-20T15:28:35.026Z,6.27
2018-06-20T15:31:43.409Z,5.87
2018-06-20T15:34:51.952Z,11.50
2018-06-20T15:38:00.345Z,5.83
2018-06-20T15:41:03.437Z,5.73
2018-06-20T15:44:06.742Z,4.97
2018-06-20T15:47:09.816Z,7.43
2018-06-20T15:50:12.906Z,5.60
2018-06-20T15:53:15.957Z,5.13
2018-06-20T15:56:19.020Z,5.57
2018-06-20T15:59:21.881Z,4.73
2018-06-20T16:02:24.989Z,6.30
2018-06-20T16:05:28.073Z,6.07
2018-06-20T16:08:31.163Z,5.20
2018-06-20T16:11:34.260Z,4.67
2018-06-20T16:14:37.321Z,5.77
2018-06-20T16:17:40.395Z,4.60
2018-06-20T16:20:48.845Z,4.10
2018-06-20T16:23:57.529Z,6.60
2018-06-20T16:27:05.989Z,6.27
2018-06-20T16:30:14.661Z,4.57
2018-06-20T16:33:17.746Z,5.00
2018-06-20T16:36:20.854Z,4.13
2018-06-20T16:39:23.932Z,4.40
2018-06-20T16:42:27.005Z,5.57
2018-06-20T16:45:29.880Z,4.87
2018-06-20T16:48:32.733Z,5.40
2018-06-20T16:51:36.036Z,4.90
2018-06-20T16:54:39.111Z,5.50
2018-06-20T16:57:42.201Z,8.23
2018-06-20T17:00:45.302Z,5.10
2018-06-20T17:03:48.390Z,4.30
2018-06-20T17:06:51.463Z,5.73
2018-06-20T17:09:54.521Z,6.30
2018-06-20T17:13:03.078Z,4.80
2018-06-20T17:16:11.626Z,5.03
2018-06-20T17:19:20.278Z,5.43
2018-06-20T17:22:28.845Z,5.47
2018-06-20T17:25:33.124Z,6.27
2018-06-20T17:28:36.185Z,4.87
2018-06-20T17:31:39.261Z,6.33
2018-06-20T17:34:42.557Z,5.23
2018-06-20T17:37:45.631Z,6.37
2018-06-20T17:40:48.682Z,7.10
2018-06-20T17:43:51.533Z,4.80
2018-06-20T17:46:54.618Z,6.57
2018-06-20T17:49:57.671Z,6.43
2018-06-20T17:53:00.758Z,7.90
2018-06-20T17:56:05.013Z,5.50
2018-06-20T17:59:08.105Z,5.17
2018-06-20T18:02:11.171Z,7.53
2018-06-20T18:05:19.616Z,4.90
2018-06-20T18:08:28.293Z,7.83
2018-06-20T18:11:37.021Z,7.07
2018-06-20T18:14:45.386Z,6.10
2018-06-20T18:17:48.484Z,6.10
2018-06-20T18:20:51.557Z,6.83
2018-06-20T18:23:54.629Z,5.97
2018-06-20T18:26:57.713Z,7.57
2018-06-20T18:30:00.941Z,6.17
2018-06-20T18:33:04.006Z,7.50
2018-06-20T18:36:07.070Z,5.90
2018-06-20T18:39:10.854Z,6.33
2018-06-20T18:42:13.965Z,6.20
2018-06-20T18:45:17.054Z,5.83
2018-06-20T18:48:26.609Z,7.63
2018-06-20T18:51:29.728Z,5.30
2018-06-20T18:54:32.782Z,5.03
2018-06-20T18:57:41.422Z,8.37
2018-06-20T19:00:50.139Z,5.60
2018-06-20T19:03:58.742Z,6.03
2018-06-20T19:07:07.317Z,6.43
2018-06-20T19:10:10.425Z,5.10
2018-06-20T19:13:13.528Z,4.30
2018-06-20T19:16:16.582Z,5.00
2018-06-20T19:19:19.678Z,6.93
2018-06-20T19:22:22.776Z,12.23
2018-06-20T19:25:25.868Z,18.13
2018-06-20T19:28:28.957Z,17.93
2018-06-20T19:31:32.043Z,17.70
2018-06-20T19:34:35.142Z,11.90
2018-06-20T19:37:38.350Z,9.57
2018-06-20T19:40:41.409Z,10.47
2018-06-20T19:43:49.826Z,8.57
2018-06-20T19:46:52.892Z,8.83
2018-06-20T19:49:55.997Z,8.13
2018-06-20T19:52:59.076Z,11.47
2018-06-20T19:56:02.142Z,12.10
2018-06-20T19:59:05.233Z,10.30
2018-06-20T20:02:08.097Z,9.77
2018-06-20T20:05:11.185Z,13.77
2018-06-20T20:08:14.273Z,13.23
2018-06-20T20:11:17.354Z,12.80
2018-06-20T20:14:20.461Z,15.03
2018-06-20T20:17:23.539Z,9.40
2018-06-20T20:20:26.721Z,5.67
2018-06-20T20:23:29.798Z,10.47
2018-06-20T20:26:33.230Z,9.10
2018-06-20T20:29:36.318Z,5.53
2018-06-20T20:32:39.419Z,8.07
2018-06-20T20:35:42.511Z,10.13
2018-06-20T20:38:45.606Z,7.57
2018-06-20T20:41:48.665Z,9.97
2018-06-20T20:44:51.761Z,8.00
2018-06-20T20:47:54.837Z,4.87
2018-06-20T20:50:57.933Z,6.60
2018-06-20T20:54:01.022Z,6.27
2018-06-20T20:57:04.101Z,6.03
2018-06-20T21:00:07.201Z,5.37
2018-06-20T21:03:10.265Z,5.23
2018-06-20T21:06:13.228Z,4.87
2018-06-20T21:09:16.267Z,4.10
2018-06-20T21:12:19.341Z,5.53
2018-06-20T21:15:23.499Z,6.57
2018-06-20T21:18:26.575Z,7.97
2018-06-20T21:21:30.205Z,6.37
2018-06-20T21:24:33.266Z,9.70
2018-06-20T21:27:36.347Z,7.37
2018-06-20T21:30:39.437Z,8.37
2018-06-20T21:33:42.489Z,8.57
2018-06-20T21:36:45.358Z,7.70
2018-06-20T21:39:48.437Z,6.13
2018-06-20T21:42:51.524Z,6.13
2018-06-20T21:45:54.615Z,4.47
2018-06-20T21:48:57.687Z,5.37
2018-06-20T21:52:00.802Z,5.97
2018-06-20T21:55:03.888Z,6.03
2018-06-20T21:58:06.961Z,5.33
2018-06-20T22:01:10.043Z,5.10
2018-06-20T22:04:13.121Z,5.30
2018-06-20T22:07:16.195Z,5.30
2018-06-20T22:10:19.260Z,4.70
2018-06-20T22:13:22.341Z,5.90
2018-06-20T22:16:25.434Z,4.87
2018-06-20T22:19:28.539Z,5.50
2018-06-20T22:22:31.609Z,4.73
2018-06-20T22:25:34.705Z,5.00
2018-06-20T22:28:37.762Z,4.93
2018-06-20T22:31:40.837Z,5.23
2018-06-20T22:34:43.937Z,4.57
2018-06-20T22:37:47.016Z,5.87
2018-06-20T22:40:49.897Z,5.10
2018-06-20T22:43:52.765Z,4.67
2018-06-20T22:46:55.865Z,6.13
2018-06-20T22:49:58.941Z,4.90
2018-06-20T22:53:02.221Z,4.93
2018-06-20T22:56:05.390Z,5.00
2018-06-20T22:59:08.460Z,5.07
2018-06-20T23:02:11.547Z,5.00
2018-06-20T23:05:14.630Z,5.17
2018-06-20T23:08:17.706Z,4.67
2018-06-20T23:11:20.817Z,5.17
2018-06-20T23:14:23.652Z,4.80
2018-06-20T23:17:26.798Z,5.13
2018-06-20T23:20:29.897Z,5.10
2018-06-20T23:23:32.974Z,4.80
2018-06-20T23:26:36.033Z,4.80
2018-06-20T23:29:39.157Z,5.47
2018-06-20T23:32:42.278Z,6.07
2018-06-20T23:35:45.366Z,5.40
2018-06-20T23:38:48.436Z,5.23
2018-06-20T23:41:51.293Z,4.53
2018-06-20T23:44:54.370Z,5.43
2018-06-20T23:47:57.432Z,5.23
2018-06-20T23:51:00.530Z,5.00
2018-06-20T23:54:03.603Z,7.67
2018-06-20T23:57:06.718Z,6.00
